Time;durP1;ratioP1;P1;durP2;ratioP2;P2;SDS_P1;SDS_P2;PMS_P1;PMS_P2;Temp;Humidity;BMP_temperature;BMP_pressure;BME280_temperature;BME280_humidity;BME280_pressure;Samples;Min_cycle;Max_cycle;Signal;HPM_P1;HPM_P2
2022/07/30 00:00:47;;;;;;;18.67;7.03;;;;;;;16.98;88.44;102001.25;4967856;28;20062;-65
2022/07/30 00:03:12;;;;;;;14.38;6.97;;;;;;;16.90;88.29;101998.94;4967524;28;20007;-63
2022/07/30 00:05:37;;;;;;;18.50;6.85;;;;;;;16.86;88.54;102004.47;4966367;28;20117;-63
2022/07/30 00:08:03;;;;;;;16.88;5.93;;;;;;;16.89;88.15;102007.84;4967673;28;20026;-65
2022/07/30 00:10:28;;;;;;;13.98;6.25;;;;;;;16.90;88.36;101998.94;4967148;28;20129;-64
2022/07/30 00:12:54;;;;;;;10.63;5.75;;;;;;;16.86;88.06;102000.00;4968077;28;20039;-64
2022/07/30 00:15:19;;;;;;;10.98;6.28;;;;;;;16.84;88.32;101993.88;4967844;28;20027;-64
2022/07/30 00:17:44;;;;;;;11.30;6.30;;;;;;;16.87;88.12;101999.06;4965547;28;20038;-64
2022/07/30 00:20:10;;;;;;;12.55;5.90;;;;;;;16.88;88.25;101986.63;4967700;28;20022;-64
2022/07/30 00:22:35;;;;;;;15.25;6.90;;;;;;;16.83;88.14;101992.16;4968443;28;20577;-65
2022/07/30 00:25:00;;;;;;;11.65;5.80;;;;;;;16.81;87.94;101988.69;4967166;28;20077;-65
2022/07/30 00:27:26;;;;;;;10.55;6.43;;;;;;;16.80;88.41;101984.31;4967550;28;20046;-63
2022/07/30 00:29:51;;;;;;;12.35;6.57;;;;;;;16.75;88.51;101980.94;4966891;28;20027;-65
2022/07/30 00:32:17;;;;;;;14.90;6.90;;;;;;;16.72;88.81;101983.75;4967622;28;20039;-68
2022/07/30 00:34:42;;;;;;;11.27;5.95;;;;;;;16.69;88.46;101968.78;4966958;28;20046;-67
2022/07/30 00:37:07;;;;;;;14.90;6.88;;;;;;;16.65;88.84;101968.03;4967592;28;20394;-67
2022/07/30 00:39:33;;;;;;;14.60;6.70;;;;;;;16.63;88.87;101969.91;4968315;28;20015;-69
2022/07/30 00:42:00;;;;;;;15.50;6.97;;;;;;;16.59;89.41;101976.28;4966904;28;20039;-66
2022/07/30 00:44:27;;;;;;;16.13;6.72;;;;;;;16.56;88.90;101973.75;4967151;28;20045;-66
2022/07/30 00:46:52;;;;;;;12.73;6.50;;;;;;;16.55;88.92;101977.31;4966825;28;20142;-69
2022/07/30 00:49:17;;;;;;;10.15;6.45;;;;;;;16.52;89.31;101969.47;4966739;28;20485;-67
2022/07/30 00:51:43;;;;;;;8.15;5.97;;;;;;;16.55;89.14;101975.53;4967719;28;20030;-66
2022/07/30 00:54:08;;;;;;;11.63;6.28;;;;;;;16.58;89.17;101971.88;4967284;28;20066;-68
2022/07/30 00:56:34;;;;;;;14.25;6.15;;;;;;;16.61;89.05;101974.41;4967472;28;20035;-66
2022/07/30 00:58:59;;;;;;;10.75;6.03;;;;;;;16.60;89.00;101970.03;4966053;28;20022;-65
2022/07/30 01:03:59;;;;;;;10.70;6.38;;;;;;;16.57;88.82;101977.25;4964620;23;20143;-65
2022/07/30 01:06:25;;;;;;;9.45;5.82;;;;;;;16.53;88.95;101971.22;4947371;28;20051;-64
2022/07/30 01:08:50;;;;;;;12.25;6.30;;;;;;;16.54;89.09;101970.28;4947386;29;20440;-63
2022/07/30 01:11:15;;;;;;;12.50;5.50;;;;;;;16.51;89.03;101970.41;4947396;29;20028;-65
2022/07/30 01:13:42;;;;;;;7.57;5.28;;;;;;;16.48;88.94;101970.53;4946769;29;20024;-65
2022/07/30 01:16:08;;;;;;;8.02;6.13;;;;;;;16.34;89.17;101971.94;4947878;29;20019;-66
2022/07/30 01:21:23;;;;;;;9.35;5.30;;;;;;;16.20;89.43;101967.19;4960769;28;20053;-63
2022/07/30 01:23:49;;;;;;;7.20;5.43;;;;;;;16.25;89.67;101974.97;4949858;28;20030;-64
2022/07/30 01:26:17;;;;;;;8.32;5.05;;;;;;;16.24;89.53;101971.47;4949022;28;20046;-65
2022/07/30 01:28:46;;;;;;;10.60;5.60;;;;;;;16.20;90.01;101972.53;4949539;28;20066;-63
2022/07/30 01:31:12;;;;;;;9.15;5.78;;;;;;;16.19;90.25;101975.25;4949475;28;20023;-65
2022/07/30 01:33:40;;;;;;;10.02;5.68;;;;;;;16.21;90.01;101968.03;4948867;28;20773;-63
2022/07/30 01:36:09;;;;;;;11.70;6.07;;;;;;;16.20;90.09;101961.88;4967483;28;20077;-64
2022/07/30 01:38:35;;;;;;;9.73;6.23;;;;;;;16.16;90.13;101966.44;4948955;28;20069;-64
2022/07/30 01:41:01;;;;;;;8.50;5.47;;;;;;;16.11;90.25;101963.13;4949690;28;20031;-64
2022/07/30 01:43:27;;;;;;;10.02;6.20;;;;;;;16.11;90.31;101957.81;4948249;28;20023;-64
2022/07/30 01:45:54;;;;;;;9.80;6.70;;;;;;;16.15;90.45;101972.69;4965665;28;20034;-63
2022/07/30 01:48:21;;;;;;;11.55;5.97;;;;;;;16.20;90.42;101968.97;4966295;28;20096;-64
2022/07/30 01:50:49;;;;;;;14.90;6.60;;;;;;;16.26;90.42;101966.09;4939568;28;20035;-64
2022/07/30 01:53:22;;;;;;;14.63;7.18;;;;;;;16.28;90.41;101964.22;4947334;29;20027;-64
2022/07/30 01:55:49;;;;;;;10.10;6.93;;;;;;;16.26;90.58;101966.09;4946527;29;20023;-65
2022/07/30 01:58:18;;;;;;;13.05;6.32;;;;;;;16.28;90.42;101966.88;4945939;28;20027;-64
2022/07/30 02:00:43;;;;;;;10.18;6.68;;;;;;;16.23;90.48;101966.19;4947548;29;20050;-65
2022/07/30 02:03:09;;;;;;;7.43;5.93;;;;;;;16.15;90.18;101966.50;4929445;29;20284;-64
2022/07/30 02:05:36;;;;;;;11.13;6.40;;;;;;;16.04;90.05;101957.16;4930434;29;20027;-64
2022/07/30 02:08:06;;;;;;;10.75;6.63;;;;;;;16.02;90.09;101966.13;4950515;28;20482;-66
2022/07/30 02:10:45;;;;;;;11.90;6.75;;;;;;;15.92;90.44;101961.13;4949149;28;20034;-65
2022/07/30 02:13:12;;;;;;;13.32;6.05;;;;;;;15.87;90.51;101970.22;4965744;28;20023;-65
2022/07/30 02:15:44;;;;;;;5.75;5.25;;;;;;;15.82;90.56;101970.38;4949731;28;20026;-65
2022/07/30 02:18:15;;;;;;;8.13;5.80;;;;;;;15.85;90.86;101967.63;4948167;28;20093;-65
2022/07/30 02:20:50;;;;;;;9.30;6.18;;;;;;;15.86;90.87;101971.16;4945453;28;20031;-64
2022/07/30 02:23:17;;;;;;;8.95;5.82;;;;;;;15.84;90.83;101972.97;4945601;29;20118;-64
2022/07/30 02:25:47;;;;;;;9.02;5.43;;;;;;;15.86;90.77;101979.13;4946453;28;20031;-64
2022/07/30 02:28:13;;;;;;;9.30;5.55;;;;;;;15.84;91.11;101976.53;4946119;29;20027;-64
2022/07/30 02:30:54;;;;;;;9.88;6.18;;;;;;;15.87;91.21;101980.84;4963439;28;20070;-64
2022/07/30 02:33:26;;;;;;;11.55;5.70;;;;;;;15.89;91.08;101969.22;4948797;29;20475;-65
2022/07/30 02:35:53;;;;;;;7.07;6.03;;;;;;;15.90;90.75;101975.41;4950750;28;20043;-62
2022/07/30 02:38:19;;;;;;;8.23;5.88;;;;;;;15.90;90.98;101978.06;4955313;28;20035;-64
2022/07/30 02:40:45;;;;;;;8.77;5.53;;;;;;;15.86;90.80;101979.13;4969977;28;20101;-64
2022/07/30 02:43:14;;;;;;;10.13;5.50;;;;;;;15.82;90.77;101975.69;4951980;28;20509;-64
2022/07/30 02:45:40;;;;;;;8.75;5.55;;;;;;;15.76;91.10;101970.59;4969957;28;20152;-64
2022/07/30 02:48:06;;;;;;;9.40;5.50;;;;;;;15.80;91.21;101964.25;4967969;28;20026;-65
2022/07/30 02:50:33;;;;;;;5.20;4.70;;;;;;;15.75;91.24;101961.75;4968171;28;20189;-64
2022/07/30 02:52:59;;;;;;;8.05;5.53;;;;;;;15.70;91.33;101955.78;4966822;28;20675;-63
2022/07/30 02:55:27;;;;;;;9.25;5.68;;;;;;;15.64;91.56;101956.00;4950722;28;20077;-64
2022/07/30 02:57:53;;;;;;;7.72;5.55;;;;;;;15.62;91.58;101961.38;4950591;28;20030;-63
2022/07/30 03:00:20;;;;;;;10.18;5.72;;;;;;;15.61;91.55;101958.75;4968299;28;20027;-64
2022/07/30 03:02:46;;;;;;;8.10;5.35;;;;;;;15.66;91.59;101956.81;4967167;28;20098;-63
2022/07/30 03:05:12;;;;;;;11.43;5.50;;;;;;;15.68;91.38;101964.72;4951919;28;20026;-64
2022/07/30 03:07:39;;;;;;;8.90;5.35;;;;;;;15.69;91.57;101962.03;4968384;28;20034;-66
2022/07/30 03:10:06;;;;;;;8.10;5.60;;;;;;;15.72;91.33;101955.72;4969586;28;20042;-64
2022/07/30 03:12:33;;;;;;;11.68;5.40;;;;;;;15.73;91.55;101962.75;4951010;28;20039;-64
2022/07/30 03:14:58;;;;;;;9.13;6.03;;;;;;;15.75;91.69;101966.22;4967577;28;20022;-64
2022/07/30 03:17:26;;;;;;;10.10;5.32;;;;;;;15.73;91.39;101968.94;4967720;28;20035;-64
2022/07/30 03:19:53;;;;;;;10.05;5.53;;;;;;;15.74;91.55;101973.31;4969452;28;20035;-64
2022/07/30 03:22:20;;;;;;;7.97;5.82;;;;;;;15.74;91.58;101965.34;4968906;28;20688;-63
2022/07/30 03:24:47;;;;;;;8.77;5.40;;;;;;;15.73;91.39;101968.94;4952011;28;20023;-63
2022/07/30 03:27:13;;;;;;;6.35;4.75;;;;;;;15.70;91.33;101962.88;4951528;28;20118;-64
2022/07/30 03:29:39;;;;;;;6.47;5.03;;;;;;;15.66;91.35;101967.44;4968456;28;20541;-63
2022/07/30 03:32:05;;;;;;;8.73;5.32;;;;;;;15.65;91.43;101968.34;4966977;28;20440;-62
2022/07/30 03:34:32;;;;;;;12.48;5.10;;;;;;;15.61;91.31;101964.97;4967966;28;20019;-63
2022/07/30 03:36:57;;;;;;;11.75;5.05;;;;;;;15.63;91.41;101973.72;4949962;28;20284;-63
2022/07/30 03:39:23;;;;;;;8.98;5.63;;;;;;;15.65;91.45;101969.22;4968277;28;20023;-66
2022/07/30 03:41:50;;;;;;;10.60;5.82;;;;;;;15.66;91.60;101973.59;4950828;28;20023;-63
2022/07/30 03:44:15;;;;;;;13.23;6.55;;;;;;;15.63;91.74;101975.53;4968495;28;20041;-64
2022/07/30 03:46:41;;;;;;;12.73;6.93;;;;;;;15.57;91.88;101973.97;4968702;28;20019;-63
2022/07/30 03:49:07;;;;;;;8.63;5.80;;;;;;;15.58;91.81;101965.06;4966257;28;20053;-64
2022/07/30 03:51:35;;;;;;;7.32;6.07;;;;;;;15.58;92.05;101975.69;4967580;28;20056;-64
2022/07/30 03:54:01;;;;;;;12.52;6.50;;;;;;;15.53;92.08;101973.22;4966272;28;20030;-63
2022/07/30 03:56:27;;;;;;;7.97;6.80;;;;;;;15.55;91.72;101983.78;4950980;28;20078;-64
2022/07/30 03:58:52;;;;;;;11.52;5.70;;;;;;;15.56;91.81;101979.34;4968095;28;20030;-63
2022/07/30 04:01:18;;;;;;;7.28;5.32;;;;;;;15.54;91.87;101979.41;4967852;28;20097;-64
2022/07/30 04:03:43;;;;;;;7.78;5.20;;;;;;;15.56;91.83;101985.50;4967006;28;20046;-65
2022/07/30 04:06:08;;;;;;;8.38;5.28;;;;;;;15.59;91.83;101985.38;4967399;28;20041;-65
2022/07/30 04:08:34;;;;;;;11.82;6.55;;;;;;;15.54;92.13;101976.75;4968495;28;20031;-64
2022/07/30 04:10:59;;;;;;;10.60;6.40;;;;;;;15.56;92.39;101985.50;4967836;28;20027;-63
2022/07/30 04:13:24;;;;;;;13.07;6.40;;;;;;;15.56;92.18;101985.50;4965573;28;20026;-64
2022/07/30 04:15:59;;;;;;;11.32;5.75;;;;;;;15.55;92.10;101994.41;4967626;28;20540;-65
2022/07/30 04:18:25;;;;;;;11.05;5.70;;;;;;;15.64;91.95;101994.06;4966907;28;20023;-64
2022/07/30 04:20:52;;;;;;;6.72;5.47;;;;;;;15.70;92.34;101990.31;4955374;28;20026;-64
2022/07/30 04:23:18;;;;;;;12.15;5.90;;;;;;;15.73;92.12;101995.53;4935189;28;20418;-65
2022/07/30 04:25:44;;;;;;;14.05;6.05;;;;;;;15.75;92.00;102000.78;4967145;28;20089;-65
2022/07/30 04:28:10;;;;;;;8.35;5.20;;;;;;;15.76;91.77;101995.41;4966879;28;20027;-65
2022/07/30 04:30:36;;;;;;;8.32;6.10;;;;;;;15.78;91.77;102005.97;4968055;28;20019;-65
2022/07/30 04:33:02;;;;;;;9.00;5.47;;;;;;;15.84;91.74;102002.22;4949691;28;20092;-64
2022/07/30 04:35:30;;;;;;;9.60;5.05;;;;;;;15.92;91.61;102001.00;4949525;28;20042;-64
2022/07/30 04:37:55;;;;;;;10.10;5.57;;;;;;;16.01;91.95;101993.63;4967361;28;20073;-65
2022/07/30 04:40:21;;;;;;;8.77;5.32;;;;;;;16.12;91.48;102001.19;4967202;28;20027;-66
2022/07/30 04:42:46;;;;;;;8.75;5.53;;;;;;;16.24;91.13;102006.03;4966819;28;20296;-65
2022/07/30 04:45:12;;;;;;;8.82;6.03;;;;;;;16.24;90.83;102010.47;4966379;28;20473;-64
2022/07/30 04:47:37;;;;;;;10.45;6.00;;;;;;;16.27;90.92;102007.69;4966883;28;20033;-64
2022/07/30 04:50:04;;;;;;;8.57;5.28;;;;;;;16.31;90.41;102000.47;4967927;28;20077;-63
2022/07/30 04:52:30;;;;;;;9.68;4.97;;;;;;;16.34;90.13;101995.88;4948591;28;20038;-65
2022/07/30 04:54:57;;;;;;;9.45;5.03;;;;;;;16.36;89.84;102004.69;4949607;28;20492;-65
2022/07/30 04:57:23;;;;;;;10.35;5.38;;;;;;;16.39;90.02;102006.34;4949075;28;20071;-64
2022/07/30 04:59:49;;;;;;;12.38;5.82;;;;;;;16.39;89.60;102001.91;4965405;28;20122;-64
2022/07/30 05:02:14;;;;;;;12.30;5.55;;;;;;;16.39;89.22;102009.00;4982051;28;20042;-64
2022/07/30 05:04:40;;;;;;;8.60;5.20;;;;;;;16.49;89.08;102004.16;4985839;28;20026;-65
2022/07/30 05:07:06;;;;;;;5.75;4.53;;;;;;;16.60;88.89;102011.72;4986491;28;20094;-66
2022/07/30 05:09:32;;;;;;;8.40;4.45;;;;;;;16.67;88.64;102007.88;4986198;28;20026;-64
2022/07/30 05:11:58;;;;;;;5.47;4.57;;;;;;;16.76;87.75;102001.31;4986331;28;20037;-66
2022/07/30 05:14:24;;;;;;;7.85;4.40;;;;;;;16.85;87.60;102008.03;4986363;28;20030;-64
2022/07/30 05:16:50;;;;;;;9.50;4.50;;;;;;;16.89;86.88;102013.16;4985572;28;20096;-67
2022/07/30 05:19:17;;;;;;;7.45;4.00;;;;;;;16.98;86.79;102013.72;4985011;28;20034;-65
2022/07/30 05:21:43;;;;;;;6.28;4.00;;;;;;;17.03;86.28;102017.91;4985157;28;20042;-66
2022/07/30 05:24:08;;;;;;;6.78;3.85;;;;;;;17.12;86.05;102019.34;4985096;28;20041;-65
2022/07/30 05:26:33;;;;;;;10.57;3.58;;;;;;;17.24;85.04;102028.63;4986517;28;20109;-66
2022/07/30 05:28:59;;;;;;;8.15;3.63;;;;;;;17.23;85.24;102020.69;4971067;28;20130;-64
2022/07/30 05:31:25;;;;;;;6.93;3.20;;;;;;;17.31;84.58;102029.22;4966695;28;20101;-66
2022/07/30 05:33:50;;;;;;;8.95;4.32;;;;;;;17.36;84.31;102032.53;4965568;28;20106;-63
2022/07/30 05:36:16;;;;;;;11.57;4.18;;;;;;;17.39;84.33;102037.72;4966358;28;20062;-65
2022/07/30 05:38:41;;;;;;;5.70;3.15;;;;;;;17.46;84.04;102046.31;4966732;28;20185;-65
2022/07/30 05:41:06;;;;;;;5.95;3.33;;;;;;;17.54;83.60;102040.66;4966822;28;20512;-64
2022/07/30 05:43:32;;;;;;;8.82;3.50;;;;;;;17.65;83.07;102038.38;4966591;28;20058;-64
2022/07/30 05:45:57;;;;;;;6.03;3.30;;;;;;;17.71;82.69;102037.25;4971991;28;20046;-65
2022/07/30 05:48:23;;;;;;;9.95;3.05;;;;;;;17.75;82.62;102037.94;4984943;28;20080;-64
2022/07/30 05:50:48;;;;;;;8.60;3.55;;;;;;;17.75;83.19;102033.50;4985172;28;20030;-64
2022/07/30 05:53:13;;;;;;;5.50;3.25;;;;;;;17.84;82.92;102042.88;4979792;28;20050;-64
2022/07/30 05:55:39;;;;;;;6.13;3.10;;;;;;;17.94;82.81;102044.19;4965989;28;20055;-65
2022/07/30 05:58:04;;;;;;;10.60;4.00;;;;;;;18.00;82.88;102036.84;4967559;28;20367;-64
2022/07/30 06:00:30;;;;;;;5.47;2.95;;;;;;;18.10;82.73;102038.19;4985719;28;20428;-65
2022/07/30 06:02:55;;;;;;;6.78;3.20;;;;;;;18.21;82.48;102044.81;4973735;28;20041;-65
2022/07/30 06:05:20;;;;;;;6.40;2.70;;;;;;;18.25;82.28;102041.06;4968779;28;20110;-65
2022/07/30 06:07:46;;;;;;;6.13;2.72;;;;;;;18.35;81.94;102050.34;4969175;28;20043;-64
2022/07/30 06:10:11;;;;;;;8.02;3.47;;;;;;;18.51;81.25;102044.28;4969013;28;20027;-64
2022/07/30 06:12:37;;;;;;;4.18;2.75;;;;;;;18.59;81.66;102050.09;4970437;28;20018;-66
2022/07/30 06:15:02;;;;;;;6.38;1.95;;;;;;;18.63;81.78;102045.50;4969848;28;20031;-66
2022/07/30 06:17:28;;;;;;;5.50;2.40;;;;;;;18.70;81.04;102046.91;4969145;28;20039;-64
2022/07/30 06:19:53;;;;;;;10.98;2.90;;;;;;;18.80;81.04;102041.97;4970325;28;20046;-66
2022/07/30 06:22:19;;;;;;;6.80;2.28;;;;;;;18.78;79.96;102044.72;4969283;28;20076;-65
2022/07/30 06:24:44;;;;;;;7.43;1.98;;;;;;;18.90;78.16;102048.56;4969505;28;20030;-65
2022/07/30 06:27:10;;;;;;;5.40;2.10;;;;;;;18.99;78.12;102036.56;4969472;28;20552;-66
2022/07/30 06:29:36;;;;;;;4.88;2.00;;;;;;;19.10;77.41;102040.53;4970134;28;20019;-66
2022/07/30 06:32:02;;;;;;;5.32;2.17;;;;;;;19.10;77.03;102048.53;4952126;28;20029;-65
2022/07/30 06:34:27;;;;;;;6.80;1.63;;;;;;;19.15;76.50;102047.34;4969683;28;20468;-65
2022/07/30 06:36:52;;;;;;;4.90;2.00;;;;;;;19.28;75.92;102052.06;4969590;28;20035;-68
2022/07/30 06:39:18;;;;;;;4.80;1.58;;;;;;;19.33;75.14;102039.34;4968285;28;20026;-67
2022/07/30 06:41:43;;;;;;;4.75;1.75;;;;;;;19.40;75.17;102051.44;4949078;28;20019;-65
2022/07/30 06:44:08;;;;;;;10.07;1.80;;;;;;;19.36;73.97;102043.66;4967472;28;20054;-66
2022/07/30 06:46:34;;;;;;;6.80;1.88;;;;;;;19.40;73.76;102038.09;4968337;28;20059;-64
2022/07/30 06:48:59;;;;;;;3.30;1.48;;;;;;;19.50;73.70;102029.59;4968440;28;20011;-68
2022/07/30 06:51:24;;;;;;;5.82;1.83;;;;;;;19.57;73.13;102034.50;4968800;28;20529;-65
2022/07/30 06:53:50;;;;;;;7.95;1.63;;;;;;;19.62;73.52;102044.09;4969003;28;20482;-65
2022/07/30 06:56:15;;;;;;;5.50;1.40;;;;;;;19.76;71.90;102040.66;4968839;28;20493;-66
2022/07/30 06:58:40;;;;;;;2.35;1.45;;;;;;;19.84;71.84;102038.47;4968954;28;20131;-67
2022/07/30 07:01:06;;;;;;;5.07;1.55;;;;;;;19.89;70.57;102047.09;4951952;28;20522;-66
2022/07/30 07:03:31;;;;;;;4.43;1.92;;;;;;;19.98;70.83;102045.72;4964902;28;20027;-65
2022/07/30 07:05:56;;;;;;;7.00;1.75;;;;;;;20.03;70.84;102046.38;4967846;28;20313;-66
2022/07/30 07:08:22;;;;;;;6.00;1.38;;;;;;;20.04;70.80;102044.53;4967846;28;20479;-65
2022/07/30 07:10:47;;;;;;;3.10;1.38;;;;;;;20.09;69.89;102050.50;4968652;28;20243;-66
2022/07/30 07:13:13;;;;;;;4.28;1.30;;;;;;;20.12;69.57;102047.66;4967758;28;20026;-64
2022/07/30 07:15:38;;;;;;;2.78;1.40;;;;;;;20.19;69.29;102054.41;4968505;28;20042;-64
2022/07/30 07:18:05;;;;;;;4.05;1.35;;;;;;;20.26;68.30;102043.34;4968376;28;20097;-66
2022/07/30 07:20:31;;;;;;;2.15;1.17;;;;;;;20.22;68.59;102053.34;4968550;28;20046;-66
2022/07/30 07:22:56;;;;;;;2.53;1.17;;;;;;;20.33;67.85;102047.41;4964213;28;20063;-65
2022/07/30 07:25:22;;;;;;;5.28;1.50;;;;;;;20.19;68.28;102051.72;4967331;28;20026;-66
2022/07/30 07:27:48;;;;;;;2.17;1.40;;;;;;;20.32;68.30;102049.22;4967882;28;20505;-66
2022/07/30 07:30:13;;;;;;;3.33;1.73;;;;;;;20.29;68.03;102062.75;4949900;28;20065;-65
2022/07/30 07:32:38;;;;;;;4.35;1.20;;;;;;;20.36;66.25;102054.41;4966726;28;20037;-66
2022/07/30 07:35:05;;;;;;;5.40;1.45;;;;;;;20.49;66.26;102055.44;4968036;28;20110;-66
2022/07/30 07:37:30;;;;;;;5.20;1.35;;;;;;;20.60;65.63;102061.97;4966812;28;20019;-64
2022/07/30 07:39:55;;;;;;;7.15;1.52;;;;;;;20.61;65.52;102058.34;4967374;28;20031;-65
2022/07/30 07:42:21;;;;;;;5.43;1.80;;;;;;;20.66;66.27;102067.88;4967821;28;20478;-64
2022/07/30 07:44:46;;;;;;;3.60;1.23;;;;;;;20.66;65.75;102062.50;4967726;28;20065;-64
2022/07/30 07:47:11;;;;;;;5.95;1.73;;;;;;;20.70;65.59;102058.69;4967619;28;20019;-66
2022/07/30 07:49:37;;;;;;;3.80;1.83;;;;;;;20.75;65.86;102062.91;4967854;28;20027;-65
2022/07/30 07:52:02;;;;;;;3.75;1.50;;;;;;;20.91;65.03;102066.47;4967379;28;20385;-66
2022/07/30 07:54:28;;;;;;;5.60;1.40;;;;;;;20.98;65.04;102063.44;4967931;28;20034;-65
2022/07/30 07:56:55;;;;;;;4.15;1.75;;;;;;;20.96;65.27;102064.34;4968655;28;20058;-65
2022/07/30 07:59:21;;;;;;;3.83;1.27;;;;;;;21.03;64.49;102064.88;4966833;28;20037;-64
2022/07/30 08:01:47;;;;;;;2.20;1.05;;;;;;;21.11;62.80;102053.72;4966734;28;20030;-66
2022/07/30 08:04:12;;;;;;;3.70;1.20;;;;;;;21.19;61.95;102051.41;4967423;28;20045;-65
2022/07/30 08:06:37;;;;;;;2.70;1.30;;;;;;;21.19;61.82;102054.09;4967173;28;20520;-64
2022/07/30 08:09:03;;;;;;;3.97;1.10;;;;;;;21.21;61.41;102054.88;4950924;28;20026;-65
2022/07/30 08:11:28;;;;;;;2.53;1.00;;;;;;;21.23;60.64;102060.16;4967983;28;20022;-65
2022/07/30 08:13:54;;;;;;;3.55;1.13;;;;;;;21.44;60.75;102060.66;4967955;28;20109;-64
2022/07/30 08:16:19;;;;;;;4.47;1.48;;;;;;;21.29;60.63;102046.38;4967459;28;20046;-62
2022/07/30 08:18:45;;;;;;;2.92;1.20;;;;;;;21.43;60.59;102044.69;4967602;28;20026;-65
2022/07/30 08:21:10;;;;;;;2.97;1.10;;;;;;;21.43;60.01;102053.56;4964829;28;20057;-64
2022/07/30 08:23:36;;;;;;;4.25;1.30;;;;;;;21.44;59.02;102043.72;4967490;28;20138;-64
2022/07/30 08:26:01;;;;;;;4.30;0.90;;;;;;;21.52;58.59;102048.59;4966982;28;20030;-64
2022/07/30 08:28:26;;;;;;;2.15;0.85;;;;;;;21.58;57.93;102048.22;4966732;28;20757;-65
2022/07/30 08:30:52;;;;;;;2.67;1.27;;;;;;;21.67;58.20;102044.13;4967478;28;20392;-64
2022/07/30 08:33:17;;;;;;;4.03;1.17;;;;;;;21.73;57.27;102049.06;4963812;28;20062;-66
2022/07/30 08:35:42;;;;;;;1.85;1.02;;;;;;;21.68;56.56;102045.84;4967139;28;20022;-64
2022/07/30 08:38:08;;;;;;;4.30;0.95;;;;;;;21.75;57.37;102043.63;4966370;28;20034;-64
2022/07/30 08:40:34;;;;;;;4.05;1.05;;;;;;;21.93;57.29;102036.25;4966840;28;20030;-63
2022/07/30 08:43:02;;;;;;;2.47;1.40;;;;;;;21.91;57.16;102043.56;4967287;28;20033;-64
2022/07/30 08:45:29;;;;;;;3.30;1.42;;;;;;;21.96;57.06;102046.81;4966967;28;20027;-64
2022/07/30 08:47:56;;;;;;;5.63;1.10;;;;;;;22.07;56.16;102049.66;4966366;28;20113;-65
2022/07/30 08:50:22;;;;;;;4.25;1.17;;;;;;;22.16;55.69;102048.22;4965113;28;20034;-65
2022/07/30 08:52:48;;;;;;;2.22;0.82;;;;;;;22.25;56.15;102051.25;4948881;28;20405;-64
2022/07/30 08:55:14;;;;;;;7.03;1.40;;;;;;;22.16;55.78;102052.72;4947916;28;20086;-65
2022/07/30 08:57:40;;;;;;;2.25;1.20;;;;;;;22.27;56.17;102049.34;4949567;28;20058;-64
2022/07/30 09:00:06;;;;;;;1.80;1.15;;;;;;;22.43;55.81;102052.72;4967505;28;20062;-67
2022/07/30 09:02:32;;;;;;;1.67;1.15;;;;;;;22.56;55.79;102057.31;4964115;28;20043;-65
2022/07/30 09:04:57;;;;;;;3.65;1.20;;;;;;;22.39;54.75;102063.81;4967007;28;20397;-65
2022/07/30 09:07:23;;;;;;;1.45;0.88;;;;;;;22.63;52.70;102061.34;4966444;28;20015;-64
2022/07/30 09:09:48;;;;;;;5.55;0.98;;;;;;;22.65;51.01;102059.44;4949124;28;20058;-66
2022/07/30 09:12:32;;;;;;;1.48;1.00;;;;;;;22.57;51.63;102056.34;4966526;28;20138;-65
2022/07/30 09:15:16;;;;;;;5.07;0.80;;;;;;;22.72;51.93;102068.78;4966615;28;20030;-65
2022/07/30 09:18:02;;;;;;;3.60;1.20;;;;;;;22.79;50.69;102065.69;4965394;28;20039;-65
2022/07/30 09:20:29;;;;;;;2.17;1.10;;;;;;;22.96;51.41;102068.09;4966539;28;20046;-68
2022/07/30 09:22:56;;;;;;;2.72;1.10;;;;;;;23.03;51.51;102062.31;4966570;28;20121;-64
2022/07/30 09:25:32;;;;;;;1.52;0.90;;;;;;;23.10;50.84;102069.00;4966063;28;20150;-65
2022/07/30 09:27:58;;;;;;;2.45;1.20;;;;;;;23.09;51.02;102057.38;4966330;28;20088;-65
2022/07/30 09:30:23;;;;;;;1.65;1.00;;;;;;;23.09;51.19;102059.22;4966264;28;20035;-63
2022/07/30 09:32:51;;;;;;;1.63;0.90;;;;;;;23.33;50.05;102063.88;4948365;28;20162;-63
2022/07/30 09:35:17;;;;;;;1.10;0.97;;;;;;;23.39;49.58;102052.69;4966122;28;20027;-65
2022/07/30 09:37:44;;;;;;;2.15;1.17;;;;;;;23.43;49.34;102059.59;4966312;28;20037;-64
2022/07/30 09:40:15;;;;;;;3.40;1.15;;;;;;;23.41;49.90;102050.78;4965168;28;20217;-64
2022/07/30 09:42:40;;;;;;;1.42;1.00;;;;;;;23.46;50.37;102053.16;4965869;28;20434;-65
2022/07/30 09:45:11;;;;;;;1.95;1.30;;;;;;;23.75;49.75;102054.75;4964914;28;20054;-64
2022/07/30 09:47:38;;;;;;;2.58;1.00;;;;;;;23.79;49.64;102054.44;4955307;28;20449;-66
2022/07/30 09:50:12;;;;;;;3.38;1.15;;;;;;;23.97;48.87;102054.06;4966298;28;20023;-65
2022/07/30 09:52:39;;;;;;;3.15;1.20;;;;;;;23.90;49.23;102052.78;4963787;28;20019;-64
2022/07/30 09:55:05;;;;;;;2.47;1.23;;;;;;;24.15;48.39;102049.22;4948620;28;20512;-65
2022/07/30 09:57:30;;;;;;;2.28;1.05;;;;;;;24.20;48.59;102052.41;4967418;28;20039;-65
2022/07/30 09:59:57;;;;;;;1.23;1.10;;;;;;;23.85;49.30;102048.59;4965832;28;20063;-64
2022/07/30 10:02:30;;;;;;;3.50;1.42;;;;;;;24.31;48.87;102046.25;4964340;28;20066;-65
2022/07/30 10:05:07;;;;;;;4.88;1.17;;;;;;;24.56;49.00;102041.72;4966251;28;20035;-65
2022/07/30 10:07:33;;;;;;;2.85;1.10;;;;;;;24.86;47.56;102042.19;4965236;28;20025;-66
2022/07/30 10:09:58;;;;;;;3.53;1.23;;;;;;;24.89;47.24;102047.38;4948029;28;20109;-64
2022/07/30 10:12:24;;;;;;;3.30;1.20;;;;;;;24.96;46.82;102048.63;4947900;28;20454;-65
2022/07/30 10:14:52;;;;;;;4.47;1.30;;;;;;;25.17;45.89;102052.50;4948874;28;20520;-65
2022/07/30 10:17:17;;;;;;;2.47;1.02;;;;;;;25.08;46.73;102048.69;4964675;28;20121;-65
2022/07/30 10:19:43;;;;;;;2.90;1.40;;;;;;;25.55;46.02;102045.09;4965252;28;20101;-65
2022/07/30 10:22:09;;;;;;;6.13;1.35;;;;;;;25.44;45.87;102054.00;4965561;28;20035;-64
2022/07/30 10:24:35;;;;;;;1.75;1.08;;;;;;;25.90;44.37;102054.03;4948505;28;20127;-64
2022/07/30 10:27:01;;;;;;;2.33;1.20;;;;;;;26.10;44.63;102047.88;4965919;28;20023;-64
2022/07/30 10:29:26;;;;;;;2.55;1.10;;;;;;;26.51;43.96;102052.72;4948892;28;20084;-66
2022/07/30 10:31:51;;;;;;;2.30;1.10;;;;;;;26.79;42.81;102052.25;4969707;28;20027;-64
2022/07/30 10:34:18;;;;;;;6.15;1.27;;;;;;;26.85;42.37;102043.63;4968568;28;20062;-66
2022/07/30 10:36:47;;;;;;;5.93;1.60;;;;;;;27.01;42.32;102051.31;4964775;28;20440;-64
2022/07/30 10:39:17;;;;;;;1.48;1.15;;;;;;;27.35;41.79;102042.09;4946681;28;20482;-64
2022/07/30 10:42:22;;;;;;;2.80;1.27;;;;;;;27.67;40.41;102041.16;4963707;28;20027;-64
2022/07/30 10:45:02;;;;;;;2.53;1.20;;;;;;;27.49;41.13;102047.19;4961143;28;20039;-63
2022/07/30 10:47:28;;;;;;;2.65;0.90;;;;;;;27.90;40.07;102034.66;4946904;28;20035;-64
2022/07/30 10:50:17;;;;;;;4.82;1.45;;;;;;;27.88;39.64;102032.94;4947960;28;20046;-64
2022/07/30 10:52:54;;;;;;;5.78;1.30;;;;;;;27.50;40.83;102035.34;4963834;28;20042;-65
2022/07/30 10:55:23;;;;;;;2.88;1.13;;;;;;;27.50;42.15;102039.91;4968760;28;20025;-64
2022/07/30 10:58:02;;;;;;;4.07;1.08;;;;;;;28.06;39.89;102039.56;4968817;28;20060;-66
2022/07/30 11:00:29;;;;;;;2.72;1.50;;;;;;;28.12;39.88;102029.00;4968331;28;20643;-64
2022/07/30 11:03:14;;;;;;;4.77;1.53;;;;;;;28.26;39.88;102035.88;4968347;28;20121;-64
2022/07/30 11:05:40;;;;;;;5.18;1.35;;;;;;;28.74;38.36;102027.06;4968598;28;20039;-65
2022/07/30 11:08:28;;;;;;;2.60;1.30;;;;;;;28.59;38.10;102029.38;4967610;28;20037;-66
2022/07/30 11:10:54;;;;;;;1.85;1.20;;;;;;;28.68;37.44;102028.50;4968960;28;20026;-66
2022/07/30 11:13:58;;;;;;;3.40;1.20;;;;;;;28.34;38.59;102026.22;4968602;28;20401;-66
2022/07/30 11:16:48;;;;;;;10.73;2.75;;;;;;;28.27;39.41;102034.03;4967532;28;20666;-65
2022/07/30 11:19:19;;;;;;;5.15;2.83;;;;;;;28.11;39.15;102030.00;4968449;28;20643;-65
2022/07/30 11:21:46;;;;;;;4.53;1.30;;;;;;;28.07;39.09;102027.72;4968246;28;20046;-64
2022/07/30 11:24:43;;;;;;;2.25;1.10;;;;;;;28.00;38.79;102030.97;4968567;28;20474;-64
2022/07/30 11:27:09;;;;;;;2.72;1.10;;;;;;;28.18;39.45;102038.44;4968318;28;20031;-66
2022/07/30 11:29:39;;;;;;;2.58;1.50;;;;;;;28.03;39.85;102034.41;4968437;28;20489;-65